sensor_id;sensor_type;location;lat;lon;timestamp;pressure;altitude;pressure_sealevel;temperature;humidity
50684;BME280;36654;45.042;38.994;2023-07-31T00:00:31;100575.69;;;24.38;56.84
50684;BME280;36654;45.042;38.994;2023-07-31T00:02:57;100567.94;;;24.30;57.02
50684;BME280;36654;45.042;38.994;2023-07-31T00:05:22;100580.41;;;24.35;57.21
50684;BME280;36654;45.042;38.994;2023-07-31T00:07:48;100588.59;;;24.33;57.29
50684;BME280;36654;45.042;38.994;2023-07-31T00:10:14;100566.63;;;24.20;57.25
50684;BME280;36654;45.042;38.994;2023-07-31T00:12:42;100556.34;;;24.09;57.52
50684;BME280;36654;45.042;38.994;2023-07-31T00:15:08;100590.94;;;24.22;57.46
50684;BME280;36654;45.042;38.994;2023-07-31T00:17:34;100578.34;;;24.21;57.35
50684;BME280;36654;45.042;38.994;2023-07-31T00:20:00;100592.25;;;24.13;57.42
50684;BME280;36654;45.042;38.994;2023-07-31T00:22:25;100582.44;;;24.10;56.94
50684;BME280;36654;45.042;38.994;2023-07-31T00:24:52;100574.69;;;24.03;57.25
50684;BME280;36654;45.042;38.994;2023-07-31T00:27:18;100588.31;;;24.01;57.71
50684;BME280;36654;45.042;38.994;2023-07-31T00:29:43;100569.56;;;23.97;57.20
50684;BME280;36654;45.042;38.994;2023-07-31T00:32:09;100569.69;;;23.94;57.10
50684;BME280;36654;45.042;38.994;2023-07-31T00:34:36;100572.06;;;24.01;57.24
50684;BME280;36654;45.042;38.994;2023-07-31T00:37:01;100585.38;;;24.06;56.79
50684;BME280;36654;45.042;38.994;2023-07-31T00:39:27;100571.16;;;24.01;56.57
50684;BME280;36654;45.042;38.994;2023-07-31T00:41:52;100583.88;;;23.99;56.42
50684;BME280;36654;45.042;38.994;2023-07-31T00:44:18;100577.91;;;23.92;56.42
50684;BME280;36654;45.042;38.994;2023-07-31T00:46:44;100577.16;;;23.88;56.87
50684;BME280;36654;45.042;38.994;2023-07-31T00:49:10;100580.81;;;23.87;56.94
50684;BME280;36654;45.042;38.994;2023-07-31T00:51:37;100568.53;;;23.80;56.69
50684;BME280;36654;45.042;38.994;2023-07-31T00:54:02;100568.59;;;23.79;56.56
50684;BME280;36654;45.042;38.994;2023-07-31T00:56:29;100543.56;;;23.53;56.66
50684;BME280;36654;45.042;38.994;2023-07-31T00:58:55;100582.22;;;23.77;56.39
50684;BME280;36654;45.042;38.994;2023-07-31T01:01:21;100578.84;;;23.71;56.80
50684;BME280;36654;45.042;38.994;2023-07-31T01:03:48;100570.81;;;23.69;56.79
50684;BME280;36654;45.042;38.994;2023-07-31T01:06:47;100572.50;;;23.72;57.15
50684;BME280;36654;45.042;38.994;2023-07-31T01:09:42;100573.38;;;23.72;57.15
50684;BME280;36654;45.042;38.994;2023-07-31T01:12:14;100576.09;;;23.72;56.90
50684;BME280;36654;45.042;38.994;2023-07-31T01:14:40;100569.94;;;23.68;56.68
50684;BME280;36654;45.042;38.994;2023-07-31T01:17:05;100575.34;;;23.68;57.07
50684;BME280;36654;45.042;38.994;2023-07-31T01:19:31;100575.44;;;23.67;56.49
50684;BME280;36654;45.042;38.994;2023-07-31T01:25:21;100580.31;;;23.59;56.62
50684;BME280;36654;45.042;38.994;2023-07-31T01:28:00;100578.69;;;23.55;56.64
50684;BME280;36654;45.042;38.994;2023-07-31T01:30:32;100566.53;;;23.44;56.28
50684;BME280;36654;45.042;38.994;2023-07-31T01:33:03;100563.00;;;23.42;56.38
50684;BME280;36654;45.042;38.994;2023-07-31T01:35:37;100582.41;;;23.52;56.59
50684;BME280;36654;45.042;38.994;2023-07-31T01:38:04;100562.19;;;23.40;56.62
50684;BME280;36654;45.042;38.994;2023-07-31T01:40:30;100566.53;;;23.44;56.61
50684;BME280;36654;45.042;38.994;2023-07-31T01:42:56;100568.41;;;23.42;56.38
50684;BME280;36654;45.042;38.994;2023-07-31T01:45:21;100569.63;;;23.35;56.78
50684;BME280;36654;45.042;38.994;2023-07-31T01:47:47;100541.25;;;23.04;57.00
50684;BME280;36654;45.042;38.994;2023-07-31T01:50:13;100545.16;;;22.97;57.58
50684;BME280;36654;45.042;38.994;2023-07-31T01:52:38;100589.50;;;23.14;58.42
50684;BME280;36654;45.042;38.994;2023-07-31T01:55:04;100557.41;;;22.84;59.40
50684;BME280;36654;45.042;38.994;2023-07-31T01:57:30;100577.81;;;22.91;60.22
50684;BME280;36654;45.042;38.994;2023-07-31T01:59:56;100578.34;;;22.79;60.86
50684;BME280;36654;45.042;38.994;2023-07-31T02:02:22;100583.31;;;22.68;61.03
50684;BME280;36654;45.042;38.994;2023-07-31T02:04:48;100571.69;;;22.66;61.30
50684;BME280;36654;45.042;38.994;2023-07-31T02:07:16;100582.63;;;22.63;61.51
50684;BME280;36654;45.042;38.994;2023-07-31T02:09:42;100571.94;;;22.59;61.48
50684;BME280;36654;45.042;38.994;2023-07-31T02:12:09;100437.38;;;21.81;61.93
50684;BME280;36654;45.042;38.994;2023-07-31T02:14:35;100570.81;;;22.65;61.99
50684;BME280;36654;45.042;38.994;2023-07-31T02:17:01;100561.38;;;22.53;61.79
50684;BME280;36654;45.042;38.994;2023-07-31T02:19:26;100574.25;;;22.69;61.62
50684;BME280;36654;45.042;38.994;2023-07-31T02:21:52;100572.00;;;22.80;60.89
50684;BME280;36654;45.042;38.994;2023-07-31T02:24:19;100573.88;;;23.00;60.35
50684;BME280;36654;45.042;38.994;2023-07-31T02:26:44;100564.22;;;23.15;59.40
50684;BME280;36654;45.042;38.994;2023-07-31T02:29:10;100562.34;;;23.37;58.32
50684;BME280;36654;45.042;38.994;2023-07-31T02:31:36;100570.16;;;23.64;57.38
50684;BME280;36654;45.042;38.994;2023-07-31T02:34:05;100561.81;;;23.89;56.08
50684;BME280;36654;45.042;38.994;2023-07-31T02:36:32;100555.06;;;23.98;55.46
50684;BME280;36654;45.042;38.994;2023-07-31T02:38:58;100561.16;;;24.22;54.21
50684;BME280;36654;45.042;38.994;2023-07-31T02:41:23;100559.63;;;24.54;53.09
50684;BME280;36654;45.042;38.994;2023-07-31T02:43:52;100557.72;;;24.73;52.42
50684;BME280;36654;45.042;38.994;2023-07-31T02:46:19;100556.19;;;24.68;52.10
50684;BME280;36654;45.042;38.994;2023-07-31T02:48:44;100551.25;;;24.40;52.34
50684;BME280;36654;45.042;38.994;2023-07-31T02:51:10;100554.06;;;24.19;53.13
50684;BME280;36654;45.042;38.994;2023-07-31T02:53:36;100534.88;;;24.05;52.98
50684;BME280;36654;45.042;38.994;2023-07-31T02:56:02;100527.41;;;24.48;52.42
50684;BME280;36654;45.042;38.994;2023-07-31T02:58:30;100550.63;;;25.25;50.46
50684;BME280;36654;45.042;38.994;2023-07-31T03:00:55;100543.66;;;25.87;49.04
50684;BME280;36654;45.042;38.994;2023-07-31T03:03:23;100543.94;;;26.46;47.32
50684;BME280;36654;45.042;38.994;2023-07-31T03:05:48;100547.50;;;26.78;46.29
50684;BME280;36654;45.042;38.994;2023-07-31T03:08:14;100547.78;;;27.04;45.91
50684;BME280;36654;45.042;38.994;2023-07-31T03:10:40;100543.22;;;27.35;45.08
50684;BME280;36654;45.042;38.994;2023-07-31T03:13:05;100549.09;;;27.71;44.57
50684;BME280;36654;45.042;38.994;2023-07-31T03:15:31;100544.63;;;27.85;43.84
50684;BME280;36654;45.042;38.994;2023-07-31T03:17:57;100552.81;;;27.85;44.07
50684;BME280;36654;45.042;38.994;2023-07-31T03:20:22;100544.44;;;27.88;43.67
50684;BME280;36654;45.042;38.994;2023-07-31T03:22:48;100554.03;;;28.08;43.71
50684;BME280;36654;45.042;38.994;2023-07-31T03:25:13;100553.44;;;28.31;43.18
50684;BME280;36654;45.042;38.994;2023-07-31T03:27:39;100557.81;;;28.48;42.83
50684;BME280;36654;45.042;38.994;2023-07-31T03:30:05;100546.06;;;28.60;42.18
50684;BME280;36654;45.042;38.994;2023-07-31T03:32:31;100562.81;;;28.69;42.26
50684;BME280;36654;45.042;38.994;2023-07-31T03:34:57;100564.31;;;28.73;41.98
50684;BME280;36654;45.042;38.994;2023-07-31T03:37:25;100560.03;;;28.83;42.20
50684;BME280;36654;45.042;38.994;2023-07-31T03:39:50;100544.66;;;28.68;41.99
50684;BME280;36654;45.042;38.994;2023-07-31T03:42:16;100552.41;;;28.88;42.04
50684;BME280;36654;45.042;38.994;2023-07-31T03:44:43;100561.34;;;29.03;41.89
50684;BME280;36654;45.042;38.994;2023-07-31T03:47:09;100545.88;;;29.03;41.49
50684;BME280;36654;45.042;38.994;2023-07-31T03:49:34;100568.56;;;29.31;41.14
50684;BME280;36654;45.042;38.994;2023-07-31T03:52:00;100552.88;;;29.08;41.43
50684;BME280;36654;45.042;38.994;2023-07-31T03:54:26;100573.00;;;29.19;41.80
50684;BME280;36654;45.042;38.994;2023-07-31T03:56:51;100522.72;;;28.96;41.69
50684;BME280;36654;45.042;38.994;2023-07-31T03:59:17;100570.28;;;29.32;41.48
50684;BME280;36654;45.042;38.994;2023-07-31T04:01:42;100561.47;;;29.29;41.61
50684;BME280;36654;45.042;38.994;2023-07-31T04:04:08;100524.47;;;28.97;41.76
50684;BME280;36654;45.042;38.994;2023-07-31T04:06:33;100570.06;;;29.22;41.44
50684;BME280;36654;45.042;38.994;2023-07-31T04:09:02;100561.25;;;29.32;41.36
50684;BME280;36654;45.042;38.994;2023-07-31T04:11:30;100552.28;;;29.30;41.13
50684;BME280;36654;45.042;38.994;2023-07-31T04:14:05;100561.88;;;29.35;41.06
50684;BME280;36654;45.042;38.994;2023-07-31T04:16:30;100553.38;;;29.27;41.12
50684;BME280;36654;45.042;38.994;2023-07-31T04:18:56;100565.34;;;29.12;42.82
50684;BME280;36654;45.042;38.994;2023-07-31T04:21:21;100568.78;;;29.01;42.78
50684;BME280;36654;45.042;38.994;2023-07-31T04:23:47;100563.63;;;29.11;42.56
50684;BME280;36654;45.042;38.994;2023-07-31T04:26:12;100577.13;;;29.12;41.88
50684;BME280;36654;45.042;38.994;2023-07-31T04:28:38;100566.47;;;29.22;41.57
50684;BME280;36654;45.042;38.994;2023-07-31T04:31:04;100568.47;;;29.45;41.14
50684;BME280;36654;45.042;38.994;2023-07-31T04:33:29;100558.19;;;29.62;40.31
50684;BME280;36654;45.042;38.994;2023-07-31T04:35:55;100562.34;;;29.80;39.93
50684;BME280;36654;45.042;38.994;2023-07-31T04:38:21;100550.53;;;29.93;39.30
50684;BME280;36654;45.042;38.994;2023-07-31T04:40:47;100565.50;;;30.00;40.89
50684;BME280;36654;45.042;38.994;2023-07-31T04:43:13;100561.03;;;29.99;40.88
50684;BME280;36654;45.042;38.994;2023-07-31T04:45:38;100555.81;;;29.96;40.66
50684;BME280;36654;45.042;38.994;2023-07-31T04:48:04;100564.00;;;29.96;40.81
50684;BME280;36654;45.042;38.994;2023-07-31T04:50:30;100563.47;;;29.91;40.96
50684;BME280;36654;45.042;38.994;2023-07-31T04:52:56;100566.72;;;29.83;40.08
50684;BME280;36654;45.042;38.994;2023-07-31T04:55:22;100569.91;;;29.77;40.04
50684;BME280;36654;45.042;38.994;2023-07-31T04:57:47;100528.84;;;29.78;40.38
50684;BME280;36654;45.042;38.994;2023-07-31T05:00:13;100555.97;;;30.18;40.64
50684;BME280;36654;45.042;38.994;2023-07-31T05:02:39;100564.38;;;30.41;42.08
50684;BME280;36654;45.042;38.994;2023-07-31T05:05:12;100553.94;;;30.46;41.13
50684;BME280;36654;45.042;38.994;2023-07-31T05:07:38;100544.59;;;30.61;40.70
50684;BME280;36654;45.042;38.994;2023-07-31T05:10:04;100560.34;;;30.82;40.58
50684;BME280;36654;45.042;38.994;2023-07-31T05:12:29;100537.41;;;30.71;40.90
50684;BME280;36654;45.042;38.994;2023-07-31T05:14:55;100561.69;;;31.00;40.54
50684;BME280;36654;45.042;38.994;2023-07-31T05:17:22;100539.28;;;30.95;39.20
50684;BME280;36654;45.042;38.994;2023-07-31T05:19:48;100526.16;;;31.11;38.98
50684;BME280;36654;45.042;38.994;2023-07-31T05:22:16;100562.63;;;31.58;37.61
50684;BME280;36654;45.042;38.994;2023-07-31T05:24:41;100556.41;;;31.56;37.44
50684;BME280;36654;45.042;38.994;2023-07-31T05:27:07;100558.91;;;31.71;36.67
50684;BME280;36654;45.042;38.994;2023-07-31T05:29:32;100550.81;;;31.69;36.17
50684;BME280;36654;45.042;38.994;2023-07-31T05:31:58;100566.84;;;31.63;35.83
50684;BME280;36654;45.042;38.994;2023-07-31T05:34:24;100577.59;;;31.66;35.23
50684;BME280;36654;45.042;38.994;2023-07-31T05:36:49;100572.25;;;31.75;35.17
50684;BME280;36654;45.042;38.994;2023-07-31T05:39:15;100560.22;;;32.00;35.20
50684;BME280;36654;45.042;38.994;2023-07-31T05:41:40;100568.91;;;32.28;35.38
50684;BME280;36654;45.042;38.994;2023-07-31T05:44:09;100552.44;;;32.51;34.72
50684;BME280;36654;45.042;38.994;2023-07-31T05:46:34;100558.50;;;32.65;33.92
50684;BME280;36654;45.042;38.994;2023-07-31T05:49:00;100565.06;;;32.74;33.50
50684;BME280;36654;45.042;38.994;2023-07-31T05:51:26;100523.00;;;32.53;33.41
50684;BME280;36654;45.042;38.994;2023-07-31T05:53:55;100571.84;;;32.70;33.38
50684;BME280;36654;45.042;38.994;2023-07-31T05:56:20;100562.53;;;32.50;33.46
50684;BME280;36654;45.042;38.994;2023-07-31T05:58:46;100569.13;;;32.48;33.22
50684;BME280;36654;45.042;38.994;2023-07-31T06:01:15;100561.16;;;32.56;32.81
50684;BME280;36654;45.042;38.994;2023-07-31T06:03:41;100536.50;;;32.22;32.61
50684;BME280;36654;45.042;38.994;2023-07-31T06:06:09;100520.28;;;32.19;32.24
50684;BME280;36654;45.042;38.994;2023-07-31T06:08:35;100549.72;;;32.28;32.28
50684;BME280;36654;45.042;38.994;2023-07-31T06:11:00;100563.91;;;32.22;32.57
50684;BME280;36654;45.042;38.994;2023-07-31T06:13:26;100572.16;;;32.11;33.12
50684;BME280;36654;45.042;38.994;2023-07-31T06:15:52;100561.19;;;31.99;32.95
50684;BME280;36654;45.042;38.994;2023-07-31T06:18:17;100551.84;;;32.02;33.30
50684;BME280;36654;45.042;38.994;2023-07-31T06:20:43;100552.47;;;32.06;33.94
50684;BME280;36654;45.042;38.994;2023-07-31T06:23:12;100555.84;;;31.98;34.63
50684;BME280;36654;45.042;38.994;2023-07-31T06:25:38;100554.38;;;31.47;35.50
50684;BME280;36654;45.042;38.994;2023-07-31T06:28:04;100548.56;;;31.05;36.02
50684;BME280;36654;45.042;38.994;2023-07-31T06:30:29;100538.47;;;30.82;36.69
50684;BME280;36654;45.042;38.994;2023-07-31T06:32:55;100551.88;;;30.73;36.97
50684;BME280;36654;45.042;38.994;2023-07-31T06:35:23;100526.09;;;30.41;37.05
50684;BME280;36654;45.042;38.994;2023-07-31T06:37:49;100522.75;;;30.24;36.83
50684;BME280;36654;45.042;38.994;2023-07-31T06:40:15;100544.81;;;30.21;37.16
50684;BME280;36654;45.042;38.994;2023-07-31T06:42:42;100543.09;;;30.07;37.39
50684;BME280;36654;45.042;38.994;2023-07-31T06:45:08;100543.09;;;29.95;37.37
50684;BME280;36654;45.042;38.994;2023-07-31T06:47:33;100547.28;;;29.87;37.10
50684;BME280;36654;45.042;38.994;2023-07-31T06:49:59;100538.75;;;29.79;37.13
50684;BME280;36654;45.042;38.994;2023-07-31T06:52:25;100540.63;;;29.79;37.66
50684;BME280;36654;45.042;38.994;2023-07-31T06:55:19;100540.72;;;29.77;37.47
50684;BME280;36654;45.042;38.994;2023-07-31T06:57:49;100526.53;;;29.72;37.51
50684;BME280;36654;45.042;38.994;2023-07-31T07:00:15;100519.72;;;29.65;37.65
50684;BME280;36654;45.042;38.994;2023-07-31T07:02:41;100508.28;;;29.73;37.60
50684;BME280;36654;45.042;38.994;2023-07-31T07:05:08;100522.59;;;29.76;37.46
50684;BME280;36654;45.042;38.994;2023-07-31T07:07:34;100528.81;;;29.91;37.24
50684;BME280;36654;45.042;38.994;2023-07-31T07:10:00;100519.09;;;29.87;36.89
50684;BME280;36654;45.042;38.994;2023-07-31T07:12:28;100520.63;;;29.91;37.52
50684;BME280;36654;45.042;38.994;2023-07-31T07:14:54;100508.34;;;29.97;37.38
50684;BME280;36654;45.042;38.994;2023-07-31T07:17:20;100515.53;;;30.10;37.12
50684;BME280;36654;45.042;38.994;2023-07-31T07:19:47;100495.84;;;30.18;36.93
50684;BME280;36654;45.042;38.994;2023-07-31T07:22:13;100519.09;;;30.37;36.89
50684;BME280;36654;45.042;38.994;2023-07-31T07:24:39;100510.66;;;30.40;36.76
50684;BME280;36654;45.042;38.994;2023-07-31T07:27:05;100476.78;;;30.29;36.68
50684;BME280;36654;45.042;38.994;2023-07-31T07:29:31;100498.59;;;30.42;36.13
50684;BME280;36654;45.042;38.994;2023-07-31T07:31:57;100495.28;;;30.50;36.39
50684;BME280;36654;45.042;38.994;2023-07-31T07:34:25;100526.72;;;30.68;36.18
50684;BME280;36654;45.042;38.994;2023-07-31T07:36:50;100500.22;;;30.69;35.62
50684;BME280;36654;45.042;38.994;2023-07-31T07:39:16;100482.88;;;30.57;35.41
50684;BME280;36654;45.042;38.994;2023-07-31T07:41:41;100518.78;;;30.77;35.72
50684;BME280;36654;45.042;38.994;2023-07-31T07:44:08;100498.63;;;30.78;35.66
50684;BME280;36654;45.042;38.994;2023-07-31T07:46:33;100505.31;;;30.86;35.58
50684;BME280;36654;45.042;38.994;2023-07-31T07:48:59;100498.38;;;30.93;35.21
50684;BME280;36654;45.042;38.994;2023-07-31T07:51:24;100492.81;;;31.06;35.35
50684;BME280;36654;45.042;38.994;2023-07-31T07:53:59;100509.75;;;31.23;35.28
50684;BME280;36654;45.042;38.994;2023-07-31T07:56:26;100499.34;;;31.28;35.08
50684;BME280;36654;45.042;38.994;2023-07-31T07:58:53;100441.50;;;30.97;34.45
50684;BME280;36654;45.042;38.994;2023-07-31T08:01:19;100492.59;;;31.32;34.76
50684;BME280;36654;45.042;38.994;2023-07-31T08:03:46;100477.78;;;31.34;34.59
50684;BME280;36654;45.042;38.994;2023-07-31T08:06:11;100485.06;;;31.47;34.21
50684;BME280;36654;45.042;38.994;2023-07-31T08:08:38;100482.69;;;31.53;33.95
50684;BME280;36654;45.042;38.994;2023-07-31T08:11:04;100477.22;;;31.53;34.05
50684;BME280;36654;45.042;38.994;2023-07-31T08:13:30;100476.47;;;31.51;34.04
50684;BME280;36654;45.042;38.994;2023-07-31T08:15:55;100477.47;;;31.62;33.99
50684;BME280;36654;45.042;38.994;2023-07-31T08:18:21;100481.22;;;31.61;34.22
50684;BME280;36654;45.042;38.994;2023-07-31T08:20:47;100474.84;;;31.60;34.26
50684;BME280;36654;45.042;38.994;2023-07-31T08:23:14;100473.09;;;31.59;33.87
50684;BME280;36654;45.042;38.994;2023-07-31T08:25:40;100474.22;;;31.56;33.87
50684;BME280;36654;45.042;38.994;2023-07-31T08:28:06;100463.16;;;31.58;33.87
50684;BME280;36654;45.042;38.994;2023-07-31T08:30:32;100469.75;;;31.67;34.03
50684;BME280;36654;45.042;38.994;2023-07-31T08:32:58;100459.75;;;31.77;33.57
50684;BME280;36654;45.042;38.994;2023-07-31T08:35:25;100461.75;;;31.75;34.13
50684;BME280;36654;45.042;38.994;2023-07-31T08:37:51;100461.00;;;31.84;33.50
50684;BME280;36654;45.042;38.994;2023-07-31T08:40:17;100467.72;;;31.91;33.80
50684;BME280;36654;45.042;38.994;2023-07-31T08:42:46;100460.25;;;31.93;33.78
50684;BME280;36654;45.042;38.994;2023-07-31T08:45:17;100455.28;;;31.98;33.32
50684;BME280;36654;45.042;38.994;2023-07-31T08:47:48;100454.66;;;32.06;33.37
50684;BME280;36654;45.042;38.994;2023-07-31T08:50:17;100461.25;;;32.04;33.10
50684;BME280;36654;45.042;38.994;2023-07-31T08:52:45;100466.09;;;32.00;33.08
50684;BME280;36654;45.042;38.994;2023-07-31T08:55:11;100454.28;;;31.99;33.15
50684;BME280;36654;45.042;38.994;2023-07-31T08:57:38;100449.56;;;32.01;32.90
50684;BME280;36654;45.042;38.994;2023-07-31T09:00:06;100444.91;;;32.13;33.12
50684;BME280;36654;45.042;38.994;2023-07-31T09:02:41;100469.38;;;32.37;32.71
50684;BME280;36654;45.042;38.994;2023-07-31T09:05:10;100458.94;;;32.31;31.96
50684;BME280;36654;45.042;38.994;2023-07-31T09:07:37;100450.63;;;32.21;32.12
50684;BME280;36654;45.042;38.994;2023-07-31T09:10:04;100457.22;;;32.19;32.28
50684;BME280;36654;45.042;38.994;2023-07-31T09:12:30;100392.13;;;31.89;32.01
50684;BME280;36654;45.042;38.994;2023-07-31T09:14:57;100467.81;;;32.23;32.11
50684;BME280;36654;45.042;38.994;2023-07-31T09:19:56;100434.53;;;32.28;31.82
50684;BME280;36654;45.042;38.994;2023-07-31T09:22:33;100420.63;;;32.41;32.08
50684;BME280;36654;45.042;38.994;2023-07-31T09:25:28;100440.94;;;32.50;30.72
50684;BME280;36654;45.042;38.994;2023-07-31T09:27:57;100425.94;;;32.21;31.92
50684;BME280;36654;45.042;38.994;2023-07-31T09:30:23;100417.22;;;32.28;31.46
50684;BME280;36654;45.042;38.994;2023-07-31T09:32:50;100424.25;;;32.41;31.55
50684;BME280;36654;45.042;38.994;2023-07-31T09:35:29;100428.47;;;32.45;31.53
50684;BME280;36654;45.042;38.994;2023-07-31T09:38:06;100449.91;;;32.52;31.23
50684;BME280;36654;45.042;38.994;2023-07-31T09:40:34;100424.72;;;32.47;30.94
50684;BME280;36654;45.042;38.994;2023-07-31T09:43:01;100431.59;;;32.41;31.16
50684;BME280;36654;45.042;38.994;2023-07-31T09:45:27;100419.69;;;32.31;31.16
50684;BME280;36654;45.042;38.994;2023-07-31T09:47:54;100431.47;;;32.42;30.98
50684;BME280;36654;45.042;38.994;2023-07-31T09:50:22;100434.19;;;32.42;31.30
50684;BME280;36654;45.042;38.994;2023-07-31T09:52:48;100421.50;;;32.41;30.86
50684;BME280;36654;45.042;38.994;2023-07-31T09:55:13;100427.22;;;32.50;31.13
50684;BME280;36654;45.042;38.994;2023-07-31T09:57:40;100414.88;;;32.55;30.75
50684;BME280;36654;45.042;38.994;2023-07-31T10:00:13;100409.25;;;32.57;31.39
50684;BME280;36654;45.042;38.994;2023-07-31T10:02:39;100427.25;;;32.71;31.13
50684;BME280;36654;45.042;38.994;2023-07-31T10:05:06;100428.41;;;32.68;31.03
50684;BME280;36654;45.042;38.994;2023-07-31T10:07:37;100419.34;;;32.56;30.93
50684;BME280;36654;45.042;38.994;2023-07-31T10:10:07;100416.59;;;32.56;30.66
50684;BME280;36654;45.042;38.994;2023-07-31T10:12:35;100395.78;;;32.54;30.92
50684;BME280;36654;45.042;38.994;2023-07-31T10:15:02;100409.66;;;32.73;30.66
50684;BME280;36654;45.042;38.994;2023-07-31T10:17:30;100412.69;;;32.70;29.44
50684;BME280;36654;45.042;38.994;2023-07-31T10:19:58;100430.41;;;32.66;30.06
50684;BME280;36654;45.042;38.994;2023-07-31T10:22:26;100400.25;;;32.55;29.98
50684;BME280;36654;45.042;38.994;2023-07-31T10:24:52;100405.03;;;32.53;30.28
50684;BME280;36654;45.042;38.994;2023-07-31T10:27:20;100406.44;;;32.68;30.42
50684;BME280;36654;45.042;38.994;2023-07-31T10:29:46;100408.91;;;32.71;29.80
50684;BME280;36654;45.042;38.994;2023-07-31T10:32:14;100432.66;;;32.61;29.38
50684;BME280;36654;45.042;38.994;2023-07-31T10:34:42;100375.19;;;32.27;29.70
50684;BME280;36654;45.042;38.994;2023-07-31T10:42:33;100407.34;;;32.57;29.90
50684;BME280;36654;45.042;38.994;2023-07-31T10:45:04;100398.81;;;32.51;29.71
50684;BME280;36654;45.042;38.994;2023-07-31T10:47:31;100407.78;;;32.53;29.88
50684;BME280;36654;45.042;38.994;2023-07-31T10:52:36;100378.50;;;32.10;30.14
50684;BME280;36654;45.042;38.994;2023-07-31T10:57:46;100349.06;;;32.12;30.42
50684;BME280;36654;45.042;38.994;2023-07-31T11:03:00;100397.28;;;32.47;30.32
50684;BME280;36654;45.042;38.994;2023-07-31T11:06:00;100389.56;;;32.52;30.31
50684;BME280;36654;45.042;38.994;2023-07-31T11:08:30;100382.59;;;32.48;30.29
50684;BME280;36654;45.042;38.994;2023-07-31T11:15:54;100368.91;;;32.36;30.17
50684;BME280;36654;45.042;38.994;2023-07-31T11:18:19;100347.75;;;32.27;30.11
50684;BME280;36654;45.042;38.994;2023-07-31T11:20:45;100367.78;;;32.50;30.49
50684;BME280;36654;45.042;38.994;2023-07-31T11:23:11;100385.47;;;32.67;30.35
50684;BME280;36654;45.042;38.994;2023-07-31T11:25:40;100381.00;;;32.66;29.90
50684;BME280;36654;45.042;38.994;2023-07-31T11:28:11;100384.28;;;32.60;29.55
50684;BME280;36654;45.042;38.994;2023-07-31T11:30:37;100381.59;;;32.49;30.39
50684;BME280;36654;45.042;38.994;2023-07-31T11:33:05;100358.53;;;32.40;30.19
50684;BME280;36654;45.042;38.994;2023-07-31T11:35:32;100378.34;;;32.43;30.27
50684;BME280;36654;45.042;38.994;2023-07-31T11:37:58;100377.34;;;32.44;29.72
50684;BME280;36654;45.042;38.994;2023-07-31T11:40:24;100364.13;;;32.50;29.71
50684;BME280;36654;45.042;38.994;2023-07-31T11:42:57;100369.22;;;32.54;29.53
50684;BME280;36654;45.042;38.994;2023-07-31T11:45:26;100353.63;;;32.55;29.91
50684;BME280;36654;45.042;38.994;2023-07-31T11:47:55;100361.63;;;32.58;29.84
50684;BME280;36654;45.042;38.994;2023-07-31T11:50:23;100346.69;;;32.51;30.26
50684;BME280;36654;45.042;38.994;2023-07-31T11:52:54;100349.75;;;32.57;30.69
50684;BME280;36654;45.042;38.994;2023-07-31T11:55:23;100345.16;;;32.58;29.93
50684;BME280;36654;45.042;38.994;2023-07-31T11:57:51;100380.38;;;32.62;29.64
50684;BME280;36654;45.042;38.994;2023-07-31T12:00:19;100363.88;;;32.53;29.53
50684;BME280;36654;45.042;38.994;2023-07-31T12:02:47;100352.19;;;32.39;30.07
50684;BME280;36654;45.042;38.994;2023-07-31T12:05:13;100350.94;;;32.43;29.90
50684;BME280;36654;45.042;38.994;2023-07-31T12:07:47;100353.66;;;32.43;30.40
50684;BME280;36654;45.042;38.994;2023-07-31T12:13:01;100359.84;;;32.57;30.26
50684;BME280;36654;45.042;38.994;2023-07-31T12:15:33;100350.34;;;32.61;29.83
50684;BME280;36654;45.042;38.994;2023-07-31T12:17:58;100359.25;;;32.53;29.30
50684;BME280;36654;45.042;38.994;2023-07-31T12:20:25;100355.50;;;32.54;28.99
50684;BME280;36654;45.042;38.994;2023-07-31T12:22:51;100360.66;;;32.48;29.30
50684;BME280;36654;45.042;38.994;2023-07-31T12:25:17;100361.16;;;32.41;29.63
50684;BME280;36654;45.042;38.994;2023-07-31T12:27:46;100326.56;;;32.29;29.28
50684;BME280;36654;45.042;38.994;2023-07-31T12:30:38;100344.59;;;32.64;29.82
50684;BME280;36654;45.042;38.994;2023-07-31T12:33:13;100331.06;;;32.72;30.10
50684;BME280;36654;45.042;38.994;2023-07-31T12:35:47;100346.19;;;32.87;30.13
50684;BME280;36654;45.042;38.994;2023-07-31T12:38:13;100351.69;;;32.87;29.37
50684;BME280;36654;45.042;38.994;2023-07-31T12:40:40;100339.75;;;32.77;29.36
50684;BME280;36654;45.042;38.994;2023-07-31T12:43:09;100341.13;;;32.62;29.46
50684;BME280;36654;45.042;38.994;2023-07-31T12:45:35;100339.22;;;32.62;29.62
50684;BME280;36654;45.042;38.994;2023-07-31T12:48:01;100330.75;;;32.65;29.43
50684;BME280;36654;45.042;38.994;2023-07-31T12:50:27;100357.53;;;32.73;30.24
50684;BME280;36654;45.042;38.994;2023-07-31T12:52:57;100329.06;;;32.74;30.29
50684;BME280;36654;45.042;38.994;2023-07-31T12:55:23;100341.78;;;32.75;30.09
50684;BME280;36654;45.042;38.994;2023-07-31T12:57:50;100336.03;;;32.78;29.71
50684;BME280;36654;45.042;38.994;2023-07-31T13:00:16;100345.00;;;32.80;30.06
50684;BME280;36654;45.042;38.994;2023-07-31T13:02:41;100335.75;;;32.81;29.94
50684;BME280;36654;45.042;38.994;2023-07-31T13:05:08;100322.59;;;32.75;29.94
50684;BME280;36654;45.042;38.994;2023-07-31T13:07:34;100334.28;;;32.77;30.06